Time;durP1;ratioP1;P1;durP2;ratioP2;P2;SDS_P1;SDS_P2;PMS_P1;PMS_P2;Temp;Humidity;BMP_temperature;BMP_pressure;BME280_temperature;BME280_humidity;BME280_pressure;Samples;Min_cycle;Max_cycle;Signal;HPM_P1;HPM_P2
2022/09/05 00:00:08;;;;;;;8.38;2.70;;;20.20;98.60;;;;;;5073526;28;20437;-56
2022/09/05 00:02:43;;;;;;;6.97;2.30;;;20.20;98.50;;;;;;5073289;28;20044;-58
2022/09/05 00:05:33;;;;;;;6.82;2.63;;;20.20;98.80;;;;;;5073468;28;20044;-57
2022/09/05 00:08:22;;;;;;;6.07;2.53;;;20.20;98.80;;;;;;5073431;28;20394;-57
2022/09/05 00:11:01;;;;;;;4.65;3.10;;;20.20;98.60;;;;;;5073346;28;20048;-57
2022/09/05 00:13:34;;;;;;;6.07;3.10;;;20.10;98.70;;;;;;5073429;28;20049;-58
2022/09/05 00:16:32;;;;;;;6.80;2.95;;;20.10;98.80;;;;;;5073080;28;20483;-57
2022/09/05 00:19:11;;;;;;;5.50;3.00;;;20.10;98.90;;;;;;5072558;28;20041;-56
2022/09/05 00:21:48;;;;;;;3.65;2.80;;;20.10;98.70;;;;;;5073338;28;20391;-58
2022/09/05 00:24:32;;;;;;;4.90;2.92;;;20.00;98.90;;;;;;5076822;28;20044;-58
2022/09/05 00:27:18;;;;;;;6.80;2.75;;;20.00;98.80;;;;;;5076940;28;20491;-58
2022/09/05 00:29:56;;;;;;;6.65;2.75;;;20.00;98.90;;;;;;5076642;28;20109;-58
2022/09/05 00:32:59;;;;;;;5.30;2.65;;;20.00;98.90;;;;;;5076654;28;20438;-58
2022/09/05 00:35:49;;;;;;;7.47;2.80;;;19.90;99.20;;;;;;5058732;28;20056;-57
2022/09/05 00:38:19;;;;;;;4.80;2.75;;;19.90;99.10;;;;;;5076746;28;20123;-58
2022/09/05 00:40:58;;;;;;;4.60;2.70;;;19.90;99.10;;;;;;5076757;28;20098;-58
2022/09/05 00:43:33;;;;;;;3.53;2.72;;;19.80;99.30;;;;;;5076934;28;20052;-58
2022/09/05 00:46:06;;;;;;;6.35;2.70;;;19.90;99.40;;;;;;5059349;28;20115;-57
2022/09/05 00:48:43;;;;;;;4.53;2.63;;;19.80;99.30;;;;;;5076701;28;20048;-58
2022/09/05 00:51:14;;;;;;;6.90;2.88;;;19.80;99.40;;;;;;5076637;28;20395;-56
2022/09/05 00:53:57;;;;;;;7.13;3.13;;;19.80;99.50;;;;;;5076600;28;20109;-57
2022/09/05 00:56:58;;;;;;;7.03;3.50;;;19.70;99.60;;;;;;5076220;28;20127;-57
2022/09/05 01:00:03;;;;;;;8.65;2.83;;;19.70;99.60;;;;;;4994901;28;20199;-57
2022/09/05 01:03:01;;;;;;;8.98;2.90;;;19.70;99.80;;;;;;4995031;28;20182;-57
2022/09/05 01:06:04;;;;;;;4.72;2.95;;;19.60;99.70;;;;;;4994804;28;20129;-57
2022/09/05 01:08:38;;;;;;;6.00;3.50;;;19.60;99.90;;;;;;4994733;28;20057;-57
2022/09/05 01:11:16;;;;;;;6.65;3.50;;;19.50;99.70;;;;;;4994729;28;20378;-58
2022/09/05 01:13:53;;;;;;;6.80;3.35;;;19.50;99.90;;;;;;4994619;28;20046;-57
2022/09/05 01:16:19;;;;;;;13.25;3.63;;;19.50;99.90;;;;;;4994614;28;20046;-57
2022/09/05 01:18:58;;;;;;;7.32;3.13;;;19.50;99.90;;;;;;4994517;28;20421;-59
2022/09/05 01:21:54;;;;;;;4.97;3.00;;;19.40;99.90;;;;;;4994729;28;20054;-57
2022/09/05 01:24:32;;;;;;;8.57;3.75;;;19.40;99.90;;;;;;4994429;28;20520;-57
2022/09/05 01:26:58;;;;;;;4.82;2.90;;;19.40;99.90;;;;;;4994904;28;20042;-57
2022/09/05 01:29:29;;;;;;;8.27;3.53;;;19.40;99.90;;;;;;4994442;28;20042;-57
2022/09/05 01:32:02;;;;;;;5.00;3.72;;;19.40;99.90;;;;;;4994440;28;20047;-58
2022/09/05 01:34:53;;;;;;;6.60;3.72;;;19.30;99.90;;;;;;4994070;28;20062;-58
2022/09/05 01:37:37;;;;;;;5.60;3.38;;;19.40;99.90;;;;;;5072381;28;20118;-57
2022/09/05 01:40:19;;;;;;;5.53;3.40;;;19.30;99.90;;;;;;5075754;28;20041;-57
2022/09/05 01:43:11;;;;;;;3.65;3.08;;;19.20;99.90;;;;;;5075606;28;20107;-58
2022/09/05 01:45:50;;;;;;;6.43;3.42;;;19.20;99.90;;;;;;5066624;28;20122;-58
2022/09/05 01:48:38;;;;;;;7.47;3.50;;;19.10;99.90;;;;;;5075457;28;20048;-58
2022/09/05 01:51:38;;;;;;;5.75;3.13;;;19.20;99.90;;;;;;5075500;28;20341;-57
2022/09/05 01:54:28;;;;;;;6.93;2.90;;;19.10;99.90;;;;;;5075258;28;20566;-58
2022/09/05 01:57:03;;;;;;;6.53;3.60;;;19.10;99.90;;;;;;5075284;28;20051;-57
2022/09/05 01:59:41;;;;;;;6.90;3.78;;;19.10;99.90;;;;;;5075289;28;20047;-59
2022/09/05 02:02:30;;;;;;;5.60;4.03;;;19.10;99.90;;;;;;5075512;28;20473;-57
2022/09/05 02:05:32;;;;;;;5.68;3.78;;;19.00;99.90;;;;;;5075249;28;20453;-57
2022/09/05 02:08:25;;;;;;;8.68;3.30;;;19.00;99.90;;;;;;5074979;28;20044;-57
2022/09/05 02:11:00;;;;;;;7.65;3.78;;;19.00;99.90;;;;;;5075008;28;20054;-57
2022/09/05 02:13:35;;;;;;;5.30;3.67;;;19.00;99.90;;;;;;5075020;28;20052;-57
2022/09/05 02:16:00;;;;;;;5.30;3.13;;;18.90;99.90;;;;;;5075035;28;20044;-57
2022/09/05 02:18:52;;;;;;;6.38;3.45;;;18.90;99.90;;;;;;5074745;28;20053;-56
2022/09/05 02:21:27;;;;;;;7.03;3.40;;;18.90;99.90;;;;;;5074844;28;20047;-58
2022/09/05 02:24:02;;;;;;;6.63;4.07;;;18.80;99.90;;;;;;5074786;28;20045;-58
2022/09/05 02:26:46;;;;;;;6.60;3.70;;;18.80;99.90;;;;;;5074707;28;20098;-58
2022/09/05 02:29:15;;;;;;;6.05;3.72;;;18.80;99.90;;;;;;5074694;28;20364;-59
2022/09/05 02:31:55;;;;;;;6.40;3.40;;;18.70;99.90;;;;;;5056692;28;20056;-58
2022/09/05 02:34:40;;;;;;;7.95;3.65;;;18.70;99.90;;;;;;5074799;28;20044;-57
2022/09/05 02:37:29;;;;;;;10.30;3.95;;;18.70;99.90;;;;;;5074188;28;20056;-58
2022/09/05 02:40:11;;;;;;;7.00;3.92;;;18.70;99.90;;;;;;5074503;28;20040;-57
2022/09/05 02:43:01;;;;;;;6.57;3.53;;;18.70;99.90;;;;;;5074375;28;20567;-57
2022/09/05 02:45:39;;;;;;;7.00;4.10;;;18.60;99.90;;;;;;5073888;28;20047;-57
2022/09/05 02:48:43;;;;;;;7.55;4.20;;;18.60;99.90;;;;;;5074360;28;20057;-57
2022/09/05 02:51:33;;;;;;;7.03;4.07;;;18.60;99.90;;;;;;5074316;28;20052;-57
2022/09/05 02:54:15;;;;;;;7.63;4.35;;;18.50;99.90;;;;;;5073947;28;20564;-59
2022/09/05 02:56:50;;;;;;;7.50;4.45;;;18.50;99.90;;;;;;5074197;28;20040;-57
2022/09/05 02:59:37;;;;;;;8.90;4.72;;;18.50;99.90;;;;;;5073888;28;20482;-57
2022/09/05 03:02:12;;;;;;;8.00;4.53;;;18.40;99.90;;;;;;5074156;28;20037;-58
2022/09/05 03:05:06;;;;;;;7.88;4.20;;;18.40;99.90;;;;;;5074060;28;20049;-57
2022/09/05 03:07:57;;;;;;;9.73;4.55;;;18.40;99.90;;;;;;5074036;28;20388;-57
2022/09/05 03:10:45;;;;;;;6.07;4.50;;;18.40;99.90;;;;;;5052093;28;20052;-57
2022/09/05 03:13:44;;;;;;;7.03;4.38;;;18.30;99.90;;;;;;5074038;28;20119;-58
2022/09/05 03:16:16;;;;;;;7.10;4.55;;;18.30;99.90;;;;;;5073684;28;20048;-57
2022/09/05 03:19:12;;;;;;;8.18;4.07;;;18.20;99.90;;;;;;5073923;28;20045;-57
2022/09/05 03:21:50;;;;;;;6.75;3.92;;;18.20;99.90;;;;;;5073894;28;20059;-58
2022/09/05 03:24:37;;;;;;;10.02;4.00;;;18.20;99.90;;;;;;5073891;28;20070;-58
2022/09/05 03:28:02;;;;;;;7.22;4.60;;;18.20;99.90;;;;;;5073926;28;20399;-58
2022/09/05 03:30:53;;;;;;;9.35;4.30;;;18.10;99.90;;;;;;4992407;28;20072;-58
2022/09/05 03:33:49;;;;;;;8.02;4.03;;;18.10;99.90;;;;;;4992150;28;20462;-56
2022/09/05 03:36:42;;;;;;;5.85;4.32;;;18.00;99.90;;;;;;4991714;28;20500;-58
2022/09/05 03:39:16;;;;;;;6.03;4.03;;;18.00;99.90;;;;;;4991592;28;20082;-57
2022/09/05 03:42:05;;;;;;;5.45;3.70;;;18.00;99.90;;;;;;4991295;28;20082;-57
2022/09/05 03:44:38;;;;;;;10.43;4.85;;;17.90;99.90;;;;;;4991482;28;20421;-56
2022/09/05 03:47:21;;;;;;;6.43;4.10;;;17.90;99.90;;;;;;4991416;28;20560;-57
2022/09/05 03:50:24;;;;;;;8.27;4.47;;;17.80;99.90;;;;;;4991646;28;20051;-57
2022/09/05 03:53:11;;;;;;;7.90;4.13;;;17.90;99.90;;;;;;4991292;28;20104;-58
2022/09/05 03:55:53;;;;;;;4.95;4.40;;;17.90;99.90;;;;;;4991354;28;20117;-57
2022/09/05 03:58:48;;;;;;;7.10;4.93;;;17.80;99.90;;;;;;4992851;28;20043;-57
2022/09/05 04:01:25;;;;;;;5.72;5.03;;;17.80;99.90;;;;;;5037174;28;20102;-57
2022/09/05 04:03:56;;;;;;;6.40;4.60;;;17.80;99.90;;;;;;5076228;28;20053;-57
2022/09/05 04:06:44;;;;;;;6.95;4.95;;;17.70;99.90;;;;;;5076114;28;20047;-58
2022/09/05 04:09:44;;;;;;;6.82;4.35;;;17.80;99.90;;;;;;5058156;28;20080;-57
2022/09/05 04:12:31;;;;;;;7.50;4.38;;;17.70;99.90;;;;;;5076086;28;20052;-57
2022/09/05 04:15:07;;;;;;;6.97;4.15;;;17.70;99.90;;;;;;5076011;28;20044;-57
2022/09/05 04:17:39;;;;;;;10.77;4.65;;;17.60;99.90;;;;;;5075750;28;20121;-57
2022/09/05 04:20:21;;;;;;;8.00;4.63;;;17.60;99.90;;;;;;5075926;28;20044;-57
2022/09/05 04:23:08;;;;;;;9.00;4.60;;;17.60;99.90;;;;;;5057934;28;20044;-57
2022/09/05 04:26:09;;;;;;;7.40;4.85;;;17.60;99.90;;;;;;5075779;28;20058;-58
2022/09/05 04:29:03;;;;;;;6.90;4.35;;;17.60;99.90;;;;;;5075807;28;20053;-59
2022/09/05 04:31:44;;;;;;;7.72;4.63;;;17.50;99.90;;;;;;4994239;28;20509;-58
2022/09/05 04:34:30;;;;;;;10.27;5.15;;;17.50;99.90;;;;;;4994130;28;20066;-57
2022/09/05 04:37:07;;;;;;;7.30;5.27;;;17.50;99.90;;;;;;4957591;28;1078572;-57
2022/09/05 04:39:34;;;;;;;6.07;4.80;;;17.50;99.90;;;;;;4995357;28;20061;-57
2022/09/05 04:42:11;;;;;;;7.05;5.00;;;17.40;99.90;;;;;;4994467;28;20058;-58
2022/09/05 04:44:50;;;;;;;8.45;5.28;;;17.40;99.90;;;;;;4995272;28;20046;-57
2022/09/05 04:47:38;;;;;;;5.00;4.10;;;17.40;99.90;;;;;;4994396;28;20058;-57
2022/09/05 04:50:12;;;;;;;6.45;4.15;;;17.30;99.90;;;;;;4995201;28;20158;-57
2022/09/05 04:52:49;;;;;;;8.38;4.55;;;17.30;99.90;;;;;;4994318;28;20093;-58
2022/09/05 04:55:44;;;;;;;7.28;4.63;;;17.30;99.90;;;;;;4995054;28;20057;-58
2022/09/05 04:58:37;;;;;;;6.43;4.28;;;17.30;99.90;;;;;;4978667;28;20062;-57
2022/09/05 05:01:08;;;;;;;5.10;4.60;;;17.20;99.90;;;;;;4995317;28;20375;-57
2022/09/05 05:03:35;;;;;;;5.05;4.55;;;17.30;99.90;;;;;;4994930;28;20047;-57
2022/09/05 05:06:12;;;;;;;7.38;4.78;;;17.30;99.90;;;;;;4994845;28;20043;-58
2022/09/05 05:08:51;;;;;;;8.25;4.43;;;17.30;99.90;;;;;;5046477;28;20044;-59
2022/09/05 05:11:24;;;;;;;5.43;4.28;;;17.30;99.90;;;;;;5076275;28;20055;-57
2022/09/05 05:14:00;;;;;;;8.18;4.68;;;17.20;99.90;;;;;;5076030;28;20125;-59
2022/09/05 05:16:37;;;;;;;5.35;4.68;;;17.30;99.90;;;;;;5076124;28;20051;-57
2022/09/05 05:19:28;;;;;;;9.38;5.32;;;17.20;99.90;;;;;;5076065;28;20037;-57
2022/09/05 05:22:00;;;;;;;6.30;4.95;;;17.30;99.90;;;;;;5075965;28;20048;-57
2022/09/05 05:24:40;;;;;;;7.10;4.72;;;17.20;99.90;;;;;;5075999;28;20124;-57
2022/09/05 05:27:14;;;;;;;7.47;4.60;;;17.20;99.90;;;;;;5057604;28;20083;-57
2022/09/05 05:29:52;;;;;;;8.68;5.35;;;17.10;99.90;;;;;;5075726;28;20049;-57
2022/09/05 05:32:41;;;;;;;5.63;4.43;;;17.20;99.90;;;;;;5075612;28;20063;-58
2022/09/05 05:35:19;;;;;;;8.60;5.00;;;17.20;99.90;;;;;;5075727;28;20048;-58
2022/09/05 05:37:58;;;;;;;11.05;5.90;;;17.30;99.90;;;;;;5075624;28;20055;-58
2022/09/05 05:40:27;;;;;;;7.57;5.28;;;17.30;99.90;;;;;;5075398;28;20544;-58
2022/09/05 05:43:11;;;;;;;6.25;4.60;;;17.30;99.90;;;;;;5075710;28;20048;-57
2022/09/05 05:45:37;;;;;;;6.85;5.00;;;17.40;99.90;;;;;;5075342;28;20076;-57
2022/09/05 05:48:33;;;;;;;7.00;5.10;;;17.40;99.90;;;;;;5075082;28;20075;-57
2022/09/05 05:51:36;;;;;;;6.03;4.80;;;17.50;99.90;;;;;;5057353;28;20056;-57
2022/09/05 05:54:23;;;;;;;6.70;5.20;;;17.50;99.90;;;;;;5057460;28;20056;-58
2022/09/05 05:56:54;;;;;;;7.50;4.75;;;17.50;99.90;;;;;;5056992;28;20056;-58
2022/09/05 05:59:56;;;;;;;6.15;4.82;;;17.60;99.90;;;;;;5075151;28;20487;-58
2022/09/05 06:02:43;;;;;;;5.32;4.80;;;17.70;99.90;;;;;;5075260;28;20166;-58
2022/09/05 06:05:46;;;;;;;6.07;4.90;;;17.70;99.90;;;;;;5075128;28;20132;-58
2022/09/05 06:08:36;;;;;;;6.32;4.70;;;17.80;99.90;;;;;;5075011;28;20119;-58
2022/09/05 06:11:28;;;;;;;7.13;4.63;;;17.90;99.90;;;;;;5074859;28;20044;-57
2022/09/05 06:14:08;;;;;;;5.65;4.90;;;18.00;99.90;;;;;;5056875;28;20048;-57
2022/09/05 06:16:49;;;;;;;6.40;4.53;;;18.10;99.90;;;;;;5075253;28;20041;-58
2022/09/05 06:19:40;;;;;;;6.28;4.70;;;18.10;99.90;;;;;;5074764;28;20048;-58
2022/09/05 06:22:14;;;;;;;14.82;5.55;;;18.20;99.90;;;;;;5074347;28;20066;-58
2022/09/05 06:25:03;;;;;;;10.27;5.68;;;18.20;99.90;;;;;;5075040;28;20044;-58
2022/09/05 06:28:00;;;;;;;8.02;4.97;;;18.30;99.90;;;;;;5074900;28;20402;-58
2022/09/05 06:30:38;;;;;;;8.52;4.85;;;18.50;99.90;;;;;;5074669;28;20037;-58
2022/09/05 06:33:09;;;;;;;5.82;4.70;;;18.60;99.90;;;;;;5074692;28;20055;-58
2022/09/05 06:35:53;;;;;;;5.63;4.65;;;18.60;99.90;;;;;;5074786;28;20063;-58
2022/09/05 06:38:36;;;;;;;7.97;5.43;;;18.70;99.90;;;;;;5074398;28;20106;-58
2022/09/05 06:41:14;;;;;;;8.13;5.18;;;19.00;99.90;;;;;;5074577;28;20049;-58
2022/09/05 06:44:01;;;;;;;7.20;4.88;;;19.20;99.90;;;;;;5074471;28;20048;-58
2022/09/05 06:46:35;;;;;;;7.50;4.65;;;19.40;99.90;;;;;;5074431;28;20044;-57
2022/09/05 06:49:16;;;;;;;7.03;5.38;;;19.60;99.90;;;;;;5074353;28;20060;-57
2022/09/05 06:52:06;;;;;;;8.10;4.75;;;19.80;99.90;;;;;;5074185;28;20490;-57
2022/09/05 06:54:31;;;;;;;;;;;20.00;99.90;;;;;;5074677;28;20060;-57
2022/09/05 06:57:07;;;;;;;4.78;3.85;;;20.60;99.90;;;;;;5074131;28;20270;-56
2022/09/05 07:00:03;;;;;;;7.82;4.90;;;20.90;99.90;;;;;;5074228;28;20044;-56
2022/09/05 07:02:42;;;;;;;8.30;4.82;;;21.60;99.90;;;;;;5074208;28;20044;-57
2022/09/05 07:05:52;;;;;;;5.75;4.55;;;21.90;99.90;;;;;;5074073;28;20049;-57
2022/09/05 07:08:29;;;;;;;7.82;4.25;;;22.00;99.60;;;;;;5074058;28;20131;-57
2022/09/05 07:11:06;;;;;;;6.95;4.38;;;22.10;99.50;;;;;;5074041;28;20048;-57
2022/09/05 07:13:37;;;;;;;7.13;4.65;;;22.40;99.20;;;;;;5074037;28;20052;-57
2022/09/05 07:16:21;;;;;;;9.05;4.20;;;23.00;98.60;;;;;;5073883;28;20044;-57
2022/09/05 07:18:58;;;;;;;6.28;4.18;;;24.00;97.80;;;;;;5073879;28;20041;-58
2022/09/05 07:21:34;;;;;;;4.80;4.15;;;24.50;97.10;;;;;;5073948;28;20113;-57
2022/09/05 07:24:05;;;;;;;6.85;3.88;;;25.40;95.90;;;;;;5073835;28;20132;-57
2022/09/05 07:26:34;;;;;;;15.48;4.80;;;25.70;95.40;;;;;;5073921;28;20036;-58
2022/09/05 07:29:04;;;;;;;5.20;3.92;;;26.50;94.40;;;;;;5073737;28;20054;-57
2022/09/05 07:31:31;;;;;;;4.45;3.78;;;27.20;93.80;;;;;;5073714;28;20049;-57
2022/09/05 07:34:18;;;;;;;5.53;3.95;;;27.70;93.90;;;;;;5074069;28;20127;-57
2022/09/05 07:36:54;;;;;;;6.68;3.80;;;28.10;92.70;;;;;;5073234;28;20062;-56
2022/09/05 07:39:27;;;;;;;6.25;3.75;;;28.10;92.50;;;;;;5073814;28;20045;-56
2022/09/05 07:41:56;;;;;;;7.20;3.92;;;28.60;92.40;;;;;;5073543;28;20509;-56
2022/09/05 07:44:26;;;;;;;4.88;3.72;;;28.90;91.70;;;;;;5073808;28;20036;-56
2022/09/05 07:47:07;;;;;;;10.32;3.70;;;29.20;92.20;;;;;;5073642;28;20047;-56
2022/09/05 07:49:36;;;;;;;7.63;4.28;;;29.90;91.90;;;;;;5073660;28;20040;-56
2022/09/05 07:52:22;;;;;;;5.82;4.00;;;30.40;91.40;;;;;;5073626;28;20139;-56
2022/09/05 07:54:52;;;;;;;9.85;4.20;;;30.60;90.60;;;;;;5073592;28;20055;-56
2022/09/05 07:57:33;;;;;;;6.60;3.78;;;30.80;90.70;;;;;;5073513;28;20040;-56
2022/09/05 08:00:09;;;;;;;6.38;3.70;;;31.20;90.20;;;;;;5055356;28;20044;-57
2022/09/05 08:02:44;;;;;;;4.05;3.33;;;31.80;90.40;;;;;;5055434;28;20048;-56
2022/09/05 08:05:13;;;;;;;4.93;3.80;;;31.70;89.60;;;;;;5056214;28;20140;-56
2022/09/05 08:07:43;;;;;;;5.30;3.90;;;31.90;88.80;;;;;;5073512;28;20361;-56
2022/09/05 08:10:30;;;;;;;4.57;3.30;;;31.50;88.70;;;;;;5073375;28;20048;-57
2022/09/05 08:13:05;;;;;;;5.78;3.40;;;32.30;89.10;;;;;;5073211;28;20053;-56
2022/09/05 08:15:31;;;;;;;7.43;3.13;;;32.70;89.20;;;;;;5073441;28;20045;-56
2022/09/05 08:18:19;;;;;;;4.50;3.28;;;33.20;89.20;;;;;;5073255;28;20044;-56
2022/09/05 08:21:12;;;;;;;5.10;3.33;;;33.20;87.10;;;;;;5055268;28;20406;-56
2022/09/05 08:23:48;;;;;;;3.40;3.08;;;33.50;87.10;;;;;;5073249;28;20084;-57
2022/09/05 08:26:16;;;;;;;11.55;4.35;;;33.00;86.70;;;;;;5073087;28;20097;-57
2022/09/05 08:28:54;;;;;;;5.18;3.70;;;32.90;87.40;;;;;;5073197;28;20052;-57
2022/09/05 08:31:51;;;;;;;8.27;3.20;;;33.20;87.10;;;;;;5073224;28;20083;-57
2022/09/05 08:34:24;;;;;;;6.50;2.95;;;32.80;87.90;;;;;;5072699;28;20056;-57
2022/09/05 08:36:51;;;;;;;9.25;3.15;;;32.20;88.00;;;;;;5072901;28;20162;-57
2022/09/05 08:39:22;;;;;;;4.63;3.20;;;31.90;89.00;;;;;;5073195;28;20052;-57
2022/09/05 08:42:08;;;;;;;5.13;3.13;;;31.70;88.50;;;;;;5073119;28;20047;-56
2022/09/05 08:44:56;;;;;;;4.15;3.25;;;32.30;90.20;;;;;;5075331;28;20076;-56
2022/09/05 08:47:37;;;;;;;7.13;3.28;;;33.20;88.40;;;;;;5076672;28;20048;-56
2022/09/05 08:50:35;;;;;;;6.68;3.13;;;33.10;88.10;;;;;;5077111;28;20056;-56
2022/09/05 08:53:56;;;;;;;5.07;2.70;;;33.60;87.40;;;;;;5076689;28;20127;-56
2022/09/05 08:56:24;;;;;;;;;;;34.30;88.10;;;;;;5076950;28;20067;-56
2022/09/05 08:59:29;;;;;;;7.78;3.40;;;34.60;86.50;;;;;;5076496;28;19917;-56
2022/09/05 09:02:21;;;;;;;6.00;2.85;;;34.70;85.80;;;;;;4994935;28;20051;-56
2022/09/05 09:05:06;;;;;;;5.35;2.70;;;35.00;86.40;;;;;;4994750;28;20056;-57
2022/09/05 09:07:37;;;;;;;6.65;2.90;;;36.00;86.50;;;;;;4995001;28;20050;-56
2022/09/05 09:10:30;;;;;;;6.57;2.72;;;36.40;84.50;;;;;;4994923;28;20136;-56
2022/09/05 09:13:27;;;;;;;6.25;3.00;;;36.30;84.30;;;;;;4994742;28;20138;-57
2022/09/05 09:16:11;;;;;;;5.38;2.80;;;36.50;83.90;;;;;;4994714;28;20051;-56
2022/09/05 09:18:46;;;;;;;6.93;2.30;;;36.40;84.90;;;;;;4994647;28;20042;-56
2022/09/05 09:21:22;;;;;;;4.70;2.58;;;37.10;85.20;;;;;;4994594;28;20126;-56
2022/09/05 09:23:53;;;;;;;3.90;2.67;;;37.40;84.40;;;;;;4994353;28;20046;-56
2022/09/05 09:26:26;;;;;;;4.95;2.50;;;37.40;83.10;;;;;;4994626;28;20046;-57
2022/09/05 09:29:06;;;;;;;4.47;2.05;;;37.70;82.90;;;;;;4994582;28;20481;-57
2022/09/05 09:32:03;;;;;;;4.15;2.38;;;37.40;83.00;;;;;;4978289;28;20261;-57
2022/09/05 09:34:50;;;;;;;6.97;2.78;;;37.30;83.90;;;;;;4978031;28;20058;-57
2022/09/05 09:37:34;;;;;;;6.13;2.80;;;36.90;83.20;;;;;;5027402;28;20063;-57
2022/09/05 09:40:22;;;;;;;5.30;2.30;;;36.50;83.50;;;;;;5075759;28;20044;-58
2022/09/05 09:42:49;;;;;;;5.45;2.42;;;35.90;83.20;;;;;;5075873;28;20128;-57
2022/09/05 09:45:31;;;;;;;4.38;2.47;;;35.50;84.40;;;;;;5075608;28;20080;-57
2022/09/05 09:48:36;;;;;;;3.92;2.30;;;35.00;83.90;;;;;;5075493;28;20067;-56
2022/09/05 09:51:26;;;;;;;5.07;3.03;;;34.60;84.60;;;;;;4994426;28;20101;-57
2022/09/05 09:54:10;;;;;;;8.07;2.45;;;34.40;85.00;;;;;;4994300;28;20098;-57
2022/09/05 09:56:56;;;;;;;7.55;2.40;;;34.10;85.70;;;;;;4992974;28;20085;-57
2022/09/05 09:59:46;;;;;;;6.95;2.42;;;34.00;86.30;;;;;;4993955;28;20042;-57
2022/09/05 10:02:21;;;;;;;7.13;2.72;;;33.20;84.40;;;;;;4993821;28;20082;-56
2022/09/05 10:04:57;;;;;;;5.13;2.63;;;32.80;85.70;;;;;;4993861;28;20061;-56
2022/09/05 10:07:39;;;;;;;5.00;2.13;;;33.10;86.20;;;;;;4993675;28;20105;-56
2022/09/05 10:10:42;;;;;;;12.70;2.70;;;33.40;86.50;;;;;;4993785;28;20521;-56
2022/09/05 10:13:50;;;;;;;6.35;2.70;;;33.70;85.40;;;;;;4993762;28;20047;-56
2022/09/05 10:16:19;;;;;;;5.38;1.85;;;33.70;84.70;;;;;;4993648;28;20055;-55
2022/09/05 10:18:49;;;;;;;4.43;2.20;;;33.40;85.70;;;;;;4993549;28;20050;-56
2022/09/05 10:21:31;;;;;;;4.80;1.90;;;33.40;84.80;;;;;;4993510;28;20053;-56
2022/09/05 10:24:36;;;;;;;4.82;1.80;;;34.00;85.90;;;;;;4993448;28;20061;-56
2022/09/05 10:27:27;;;;;;;5.70;1.88;;;34.40;85.30;;;;;;5007819;28;20174;-56
2022/09/05 10:30:09;;;;;;;9.82;2.03;;;34.60;83.60;;;;;;5074775;28;20165;-57
2022/09/05 10:32:42;;;;;;;5.45;2.00;;;34.10;82.80;;;;;;5074735;28;20045;-56
2022/09/05 10:35:29;;;;;;;4.80;1.90;;;34.40;84.70;;;;;;5074403;28;20044;-57
2022/09/05 10:38:29;;;;;;;4.93;2.00;;;35.10;84.40;;;;;;5074559;28;20127;-56
2022/09/05 10:41:09;;;;;;;3.08;1.63;;;35.20;84.70;;;;;;5074602;28;20047;-57
2022/09/05 10:43:48;;;;;;;7.60;1.90;;;35.50;83.70;;;;;;5074256;28;20077;-57
2022/09/05 10:46:26;;;;;;;6.13;1.80;;;35.60;83.30;;;;;;5074103;28;20048;-55
2022/09/05 10:48:57;;;;;;;5.43;1.83;;;36.20;83.30;;;;;;5056130;28;20185;-57
2022/09/05 10:51:57;;;;;;;7.10;2.33;;;35.80;82.30;;;;;;5074370;28;20048;-57
2022/09/05 10:54:41;;;;;;;5.85;2.10;;;35.80;82.30;;;;;;4992943;28;20063;-57
2022/09/05 10:57:38;;;;;;;7.07;1.80;;;35.70;82.00;;;;;;4992562;28;20050;-57
2022/09/05 11:00:07;;;;;;;2.75;1.65;;;36.00;82.20;;;;;;4993109;28;20201;-60
2022/09/05 11:02:40;;;;;;;7.70;1.85;;;36.20;82.60;;;;;;4960183;28;20047;-56
2022/09/05 11:05:24;;;;;;;5.40;2.10;;;36.00;81.80;;;;;;4992565;28;20109;-57
2022/09/05 11:08:05;;;;;;;5.30;1.92;;;36.10;82.20;;;;;;4992257;28;20058;-56
2022/09/05 11:10:45;;;;;;;5.82;2.42;;;36.20;82.30;;;;;;4992014;28;20057;-58
2022/09/05 11:13:45;;;;;;;7.28;2.03;;;36.50;82.80;;;;;;4992684;28;20046;-57
2022/09/05 11:16:35;;;;;;;3.65;2.20;;;37.00;82.00;;;;;;4992523;28;20142;-56
2022/09/05 11:19:08;;;;;;;6.18;2.30;;;37.30;82.10;;;;;;4992398;28;20046;-56
2022/09/05 11:22:00;;;;;;;6.43;2.03;;;37.60;80.80;;;;;;4992571;28;20049;-58
2022/09/05 11:24:54;;;;;;;4.13;1.73;;;37.90;81.20;;;;;;4992417;28;20440;-57
2022/09/05 11:27:36;;;;;;;3.35;1.67;;;37.90;80.70;;;;;;4992605;28;20042;-57
2022/09/05 11:30:06;;;;;;;5.75;1.65;;;37.40;81.30;;;;;;4978176;28;20120;-57
2022/09/05 11:33:02;;;;;;;5.72;2.38;;;38.20;80.30;;;;;;5073507;28;20045;-58
2022/09/05 11:35:34;;;;;;;2.35;1.63;;;38.40;79.90;;;;;;5054091;28;20055;-57
2022/09/05 11:38:08;;;;;;;8.25;2.50;;;39.40;80.60;;;;;;5053647;28;20049;-57
2022/09/05 11:40:52;;;;;;;3.92;1.60;;;40.00;78.40;;;;;;5053641;28;20054;-56
2022/09/05 11:43:51;;;;;;;8.55;1.90;;;39.80;79.40;;;;;;5053491;28;20492;-57
2022/09/05 11:46:29;;;;;;;6.05;2.25;;;40.50;78.50;;;;;;5053264;28;20442;-57
2022/09/05 11:49:03;;;;;;;2.75;1.48;;;40.90;78.40;;;;;;5053599;28;20056;-57
2022/09/05 11:51:40;;;;;;;2.38;1.90;;;40.70;77.40;;;;;;5053405;28;20052;-57
2022/09/05 11:54:43;;;;;;;4.68;1.70;;;40.80;77.20;;;;;;5053580;28;20072;-58
2022/09/05 11:57:22;;;;;;;4.53;2.00;;;40.60;77.20;;;;;;5053428;28;20056;-59
2022/09/05 12:00:13;;;;;;;4.18;1.70;;;40.10;77.00;;;;;;5053463;28;20044;-57
2022/09/05 12:03:13;;;;;;;3.20;1.55;;;40.00;76.60;;;;;;5035349;28;20508;-57
2022/09/05 12:05:54;;;;;;;2.75;1.58;;;39.50;76.00;;;;;;5053285;28;20087;-57
2022/09/05 12:08:38;;;;;;;6.35;1.50;;;39.90;77.70;;;;;;5053345;28;20124;-58
2022/09/05 12:11:19;;;;;;;3.00;1.20;;;40.20;77.60;;;;;;5053413;28;20057;-58
2022/09/05 12:14:06;;;;;;;3.60;1.75;;;39.80;77.80;;;;;;5053284;28;20055;-57
2022/09/05 12:16:43;;;;;;;3.05;1.50;;;40.40;76.40;;;;;;5053151;28;20483;-57
2022/09/05 12:19:39;;;;;;;2.42;1.70;;;40.90;76.20;;;;;;5054910;28;20131;-57
2022/09/05 12:22:21;;;;;;;2.13;1.52;;;40.50;75.70;;;;;;4976363;28;20130;-57
2022/09/05 12:25:17;;;;;;;3.35;1.40;;;40.50;75.60;;;;;;4976283;28;20112;-57
2022/09/05 12:27:47;;;;;;;2.83;1.50;;;40.10;75.60;;;;;;4976108;28;20047;-57
2022/09/05 12:30:22;;;;;;;7.13;1.85;;;40.50;75.60;;;;;;4976009;28;20059;-56
2022/09/05 12:32:53;;;;;;;4.10;1.38;;;40.50;75.30;;;;;;4976021;28;20054;-57
2022/09/05 12:35:50;;;;;;;6.82;1.77;;;40.70;75.50;;;;;;4976038;28;20111;-58
2022/09/05 12:38:25;;;;;;;2.75;1.30;;;40.30;75.50;;;;;;4976041;28;20047;-56
2022/09/05 12:41:10;;;;;;;4.35;1.73;;;40.00;75.60;;;;;;4975814;28;20049;-56
2022/09/05 12:43:44;;;;;;;3.08;1.33;;;40.00;75.70;;;;;;4975844;28;20054;-57
2022/09/05 12:46:15;;;;;;;2.28;1.85;;;39.80;74.70;;;;;;4975837;28;20513;-58
2022/09/05 12:48:59;;;;;;;1.83;1.63;;;39.50;75.00;;;;;;4975915;28;20061;-58
2022/09/05 12:51:32;;;;;;;6.00;2.03;;;39.10;75.60;;;;;;4959558;28;20110;-58
2022/09/05 12:54:08;;;;;;;5.70;2.08;;;38.60;76.40;;;;;;4959648;28;20429;-58
2022/09/05 12:56:45;;;;;;;3.30;1.88;;;38.20;76.30;;;;;;4975720;28;20055;-58
2022/09/05 12:59:20;;;;;;;6.60;1.80;;;38.20;76.80;;;;;;5024190;28;20049;-58
2022/09/05 13:02:02;;;;;;;5.45;1.95;;;37.90;77.40;;;;;;5056483;28;20037;-57
2022/09/05 13:04:45;;;;;;;7.25;1.90;;;37.60;78.60;;;;;;5056309;28;20117;-57
2022/09/05 13:07:20;;;;;;;6.72;1.50;;;36.70;77.50;;;;;;5056399;28;20049;-57
2022/09/05 13:09:58;;;;;;;4.35;1.35;;;36.20;79.30;;;;;;5038421;28;20045;-58
2022/09/05 13:12:37;;;;;;;;;;;35.80;79.70;;;;;;5056496;28;20123;-58
2022/09/05 13:15:06;;;;;;;4.47;2.00;;;35.50;79.70;;;;;;5056273;28;19916;-58
2022/09/05 13:17:49;;;;;;;5.35;1.60;;;36.10;79.70;;;;;;5055813;28;20503;-63
2022/09/05 13:20:40;;;;;;;3.50;1.60;;;36.30;79.20;;;;;;5056143;28;20090;-64
2022/09/05 13:23:20;;;;;;;2.40;1.50;;;36.40;78.70;;;;;;5056071;28;20055;-63
2022/09/05 13:25:56;;;;;;;3.15;1.60;;;36.80;79.10;;;;;;5055876;28;20040;-64
2022/09/05 13:28:26;;;;;;;2.00;1.42;;;36.80;77.80;;;;;;5056018;28;20056;-63
2022/09/05 13:30:57;;;;;;;3.33;1.98;;;36.50;78.00;;;;;;5055615;28;20053;-64
2022/09/05 13:33:44;;;;;;;3.58;1.65;;;36.60;77.10;;;;;;5056150;28;20045;-63
2022/09/05 13:36:25;;;;;;;2.83;1.63;;;36.30;78.20;;;;;;5060846;28;20060;-64
2022/09/05 13:39:04;;;;;;;3.83;1.50;;;36.20;78.30;;;;;;5075704;28;20052;-63
2022/09/05 13:41:34;;;;;;;5.15;1.63;;;36.30;79.10;;;;;;5075752;28;20151;-63
2022/09/05 13:44:07;;;;;;;2.83;1.55;;;35.60;79.00;;;;;;5075777;28;20391;-63
2022/09/05 13:46:52;;;;;;;3.80;1.45;;;34.90;78.30;;;;;;5075663;28;20067;-64
2022/09/05 13:49:42;;;;;;;3.25;1.65;;;34.00;80.00;;;;;;5059463;28;20052;-63
2022/09/05 13:52:36;;;;;;;4.65;1.70;;;33.90;80.20;;;;;;5075957;28;20044;-64
2022/09/05 13:55:17;;;;;;;4.00;1.48;;;33.80;80.00;;;;;;5075535;28;20124;-64
2022/09/05 13:57:55;;;;;;;2.13;1.58;;;33.70;80.70;;;;;;5075371;28;20044;-64
2022/09/05 14:00:20;;;;;;;3.22;1.60;;;33.80;80.10;;;;;;5075448;28;20360;-64
2022/09/05 14:03:20;;;;;;;7.25;1.58;;;33.50;80.00;;;;;;5075270;28;20055;-64
2022/09/05 14:05:52;;;;;;;;;;;33.50;82.40;;;;;;5075738;28;20045;-63